createdAt,value
2023-05-19T00:03:52.540Z,9.84
2023-05-19T00:09:02.321Z,9.78
2023-05-19T00:14:11.649Z,9.74
2023-05-19T00:19:18.909Z,9.66
2023-05-19T00:24:26.019Z,9.56
2023-05-19T00:29:32.936Z,9.47
2023-05-19T00:34:39.795Z,9.37
2023-05-19T00:39:47.823Z,9.27
2023-05-19T00:44:55.145Z,9.16
2023-05-19T00:50:02.196Z,9.06
2023-05-19T00:55:11.638Z,9.00
2023-05-19T01:00:19.444Z,8.94
2023-05-19T01:05:27.848Z,8.90
2023-05-19T01:10:34.783Z,8.89
2023-05-19T01:15:56.540Z,8.88
2023-05-19T01:21:23.738Z,8.88
2023-05-19T01:26:57.551Z,8.90
2023-05-19T01:32:07.789Z,8.92
2023-05-19T01:37:18.756Z,8.96
2023-05-19T01:42:26.273Z,8.98
2023-05-19T01:47:34.571Z,9.00
2023-05-19T01:52:41.500Z,9.03
2023-05-19T01:58:01.003Z,9.04
2023-05-19T02:03:21.810Z,9.04
2023-05-19T02:08:35.604Z,9.05
2023-05-19T02:13:45.781Z,9.06
2023-05-19T02:18:54.015Z,9.04
2023-05-19T02:24:00.960Z,9.02
2023-05-19T02:29:10.129Z,8.98
2023-05-19T02:34:17.080Z,8.95
2023-05-19T02:39:23.990Z,8.90
2023-05-19T02:44:31.061Z,8.88
2023-05-19T02:49:38.482Z,8.85
2023-05-19T02:54:45.925Z,8.84
2023-05-19T02:59:52.839Z,8.85
2023-05-19T03:05:01.624Z,8.87
2023-05-19T03:10:10.569Z,8.88
2023-05-19T03:15:18.872Z,8.90
2023-05-19T03:20:25.874Z,8.92
2023-05-19T03:25:32.953Z,8.94
2023-05-19T03:30:40.113Z,8.97
2023-05-19T03:35:53.137Z,8.99
2023-05-19T03:41:00.472Z,9.02
2023-05-19T03:46:10.363Z,9.07
2023-05-19T03:51:28.783Z,9.13
2023-05-19T03:56:42.119Z,9.22
2023-05-19T04:01:49.136Z,9.30
2023-05-19T04:06:56.578Z,9.38
2023-05-19T04:12:03.821Z,9.46
2023-05-19T04:17:11.090Z,9.55
2023-05-19T04:22:18.200Z,9.65
2023-05-19T04:27:26.234Z,9.74
2023-05-19T04:32:34.840Z,9.82
2023-05-19T04:37:42.098Z,9.91
2023-05-19T04:42:50.134Z,9.98
2023-05-19T04:47:58.711Z,10.07
2023-05-19T04:53:05.913Z,10.15
2023-05-19T04:58:13.330Z,10.19
2023-05-19T05:03:23.067Z,10.28
2023-05-19T05:08:31.320Z,10.35
2023-05-19T05:13:40.290Z,10.40
2023-05-19T05:18:48.206Z,10.48
2023-05-19T05:23:56.902Z,10.54
2023-05-19T05:29:05.548Z,10.59
2023-05-19T05:34:12.841Z,10.66
2023-05-19T05:39:19.980Z,10.78
2023-05-19T05:44:27.670Z,10.95
2023-05-19T05:49:38.307Z,11.13
2023-05-19T05:54:46.964Z,11.35
2023-05-19T05:59:55.674Z,11.61
2023-05-19T06:05:02.814Z,11.87
2023-05-19T06:10:11.758Z,12.06
2023-05-19T06:15:18.766Z,12.29
2023-05-19T06:20:46.159Z,12.53
2023-05-19T06:25:53.467Z,12.56
2023-05-19T06:31:00.732Z,12.63
2023-05-19T06:36:19.389Z,12.63
2023-05-19T06:41:27.165Z,12.59
2023-05-19T06:46:34.402Z,12.61
2023-05-19T06:51:41.521Z,12.63
2023-05-19T06:56:48.661Z,12.61
2023-05-19T07:01:55.675Z,12.62
2023-05-19T07:07:03.133Z,12.64
2023-05-19T07:12:10.955Z,12.72
2023-05-19T07:17:18.528Z,12.75
2023-05-19T07:22:25.810Z,12.76
2023-05-19T07:27:32.912Z,12.83
2023-05-19T07:32:39.945Z,12.94
2023-05-19T07:37:47.072Z,13.07
2023-05-19T07:42:54.078Z,13.06
2023-05-19T07:48:01.613Z,13.04
2023-05-19T07:53:08.637Z,13.04
2023-05-19T07:58:15.720Z,12.99
2023-05-19T08:03:24.017Z,12.94
2023-05-19T08:08:33.486Z,12.99
2023-05-19T08:13:40.510Z,13.10
2023-05-19T08:18:47.618Z,13.23
2023-05-19T08:23:54.654Z,13.40
2023-05-19T08:29:01.561Z,13.64
2023-05-19T08:34:08.551Z,13.82
2023-05-19T08:39:16.706Z,14.01
2023-05-19T08:44:23.876Z,14.24
2023-05-19T08:49:37.055Z,14.40
2023-05-19T08:54:52.067Z,14.54
2023-05-19T08:59:59.849Z,14.70
2023-05-19T09:05:08.499Z,14.82
2023-05-19T09:10:16.554Z,14.84
2023-05-19T09:15:27.342Z,14.75
2023-05-19T09:20:33.193Z,14.75
2023-05-19T09:25:47.744Z,14.75
2023-05-19T09:31:01.893Z,14.78
2023-05-19T09:36:11.021Z,14.89
2023-05-19T09:41:18.150Z,15.05
2023-05-19T09:46:28.553Z,15.13
2023-05-19T09:51:36.051Z,15.43
2023-05-19T09:56:43.340Z,15.63
2023-05-19T10:01:51.239Z,15.87
2023-05-19T10:07:00.555Z,15.96
2023-05-19T10:12:09.334Z,16.03
2023-05-19T10:17:17.248Z,16.11
2023-05-19T10:22:24.232Z,16.11
2023-05-19T10:27:33.594Z,16.68
2023-05-19T10:32:43.975Z,16.91
2023-05-19T10:37:59.069Z,16.90
2023-05-19T10:43:23.196Z,16.52
2023-05-19T10:48:36.619Z,16.16
2023-05-19T10:53:47.007Z,16.11
2023-05-19T10:58:53.985Z,16.19
2023-05-19T11:04:05.817Z,16.02
2023-05-19T11:09:16.917Z,15.78
2023-05-19T11:14:25.273Z,15.61
2023-05-19T11:19:35.844Z,15.51
2023-05-19T11:24:47.936Z,15.34
2023-05-19T11:29:56.372Z,15.13
2023-05-19T11:35:04.129Z,14.98
2023-05-19T11:40:12.684Z,14.96
2023-05-19T11:45:25.216Z,14.91
2023-05-19T11:50:33.661Z,14.97
2023-05-19T11:55:46.552Z,14.94
2023-05-19T12:00:54.237Z,14.85
2023-05-19T12:06:01.326Z,14.73
2023-05-19T12:11:09.180Z,14.67
2023-05-19T12:16:16.364Z,14.59
2023-05-19T12:21:23.430Z,14.65
2023-05-19T12:26:41.648Z,14.61
2023-05-19T12:31:51.259Z,14.59
2023-05-19T12:36:58.345Z,14.65
2023-05-19T12:42:09.039Z,15.13
2023-05-19T12:47:16.496Z,15.03
2023-05-19T12:52:24.062Z,15.02
2023-05-19T12:57:32.588Z,15.31
2023-05-19T13:02:58.061Z,15.56
2023-05-19T13:08:08.252Z,15.69
2023-05-19T13:13:15.399Z,15.64
2023-05-19T13:18:22.296Z,15.56
2023-05-19T13:23:29.574Z,15.46
2023-05-19T13:28:36.767Z,15.40
2023-05-19T13:33:46.323Z,15.24
2023-05-19T13:38:53.516Z,15.06
2023-05-19T13:44:02.141Z,15.00
2023-05-19T13:49:09.622Z,14.93
2023-05-19T13:54:16.682Z,14.86
2023-05-19T13:59:23.623Z,14.79
2023-05-19T14:04:30.700Z,14.75
2023-05-19T14:09:37.924Z,14.71
2023-05-19T14:14:44.982Z,14.69
2023-05-19T14:19:52.017Z,14.68
2023-05-19T14:25:00.514Z,14.63
2023-05-19T14:30:09.064Z,14.61
2023-05-19T14:35:16.224Z,14.69
2023-05-19T14:40:23.427Z,14.83
2023-05-19T14:45:30.998Z,14.98
2023-05-19T14:50:38.037Z,15.17
2023-05-19T14:55:45.303Z,15.33
2023-05-19T15:00:52.256Z,15.44
2023-05-19T15:05:59.199Z,15.47
2023-05-19T15:11:06.265Z,15.50
2023-05-19T15:16:17.035Z,15.45
2023-05-19T15:21:25.576Z,15.50
2023-05-19T15:26:32.523Z,15.58
2023-05-19T15:31:39.739Z,15.63
2023-05-19T15:36:46.751Z,15.68
2023-05-19T15:41:53.970Z,15.80
2023-05-19T15:47:01.042Z,15.80
2023-05-19T15:52:08.703Z,15.75
2023-05-19T15:57:15.628Z,15.66
2023-05-19T16:02:22.705Z,15.48
2023-05-19T16:07:29.759Z,15.29
2023-05-19T16:12:37.339Z,15.14
2023-05-19T16:17:44.391Z,15.00
2023-05-19T16:22:51.204Z,14.87
2023-05-19T16:27:58.622Z,14.77
2023-05-19T16:33:05.506Z,14.67
2023-05-19T16:38:12.454Z,14.63
2023-05-19T16:43:19.594Z,14.58
2023-05-19T16:48:26.749Z,14.55
2023-05-19T16:53:33.683Z,14.55
2023-05-19T16:58:40.632Z,14.48
2023-05-19T17:03:47.598Z,14.37
2023-05-19T17:08:55.977Z,14.32
2023-05-19T17:14:07.590Z,14.27
2023-05-19T17:19:14.674Z,14.24
2023-05-19T17:24:21.865Z,14.19
2023-05-19T17:29:29.016Z,14.11
2023-05-19T17:34:35.941Z,14.04
2023-05-19T17:39:42.969Z,13.98
2023-05-19T17:44:49.999Z,13.97
2023-05-19T17:49:58.000Z,13.94
2023-05-19T17:55:06.405Z,13.89
2023-05-19T18:00:15.452Z,13.83
2023-05-19T18:05:23.993Z,13.76
2023-05-19T18:10:32.897Z,13.71
2023-05-19T18:15:40.247Z,13.67
2023-05-19T18:20:47.681Z,13.62
2023-05-19T18:25:54.648Z,13.56
2023-05-19T18:31:05.982Z,13.50
2023-05-19T18:36:13.549Z,13.44
2023-05-19T18:41:21.501Z,13.37
2023-05-19T18:46:28.533Z,13.32
2023-05-19T18:51:36.180Z,13.27
2023-05-19T18:56:43.140Z,13.22
2023-05-19T19:01:50.067Z,13.16
2023-05-19T19:06:57.016Z,13.12
2023-05-19T19:12:04.062Z,13.09
2023-05-19T19:17:11.230Z,13.03
2023-05-19T19:22:18.315Z,13.00
2023-05-19T19:27:31.010Z,12.97
2023-05-19T19:32:38.144Z,12.93
2023-05-19T19:37:47.071Z,12.88
2023-05-19T19:42:54.655Z,12.85
2023-05-19T19:48:02.168Z,12.81
2023-05-19T19:53:09.437Z,12.79
2023-05-19T19:58:16.394Z,12.77
2023-05-19T20:03:23.382Z,12.75
2023-05-19T20:08:30.341Z,12.73
2023-05-19T20:13:37.442Z,12.73
2023-05-19T20:18:44.363Z,12.71
2023-05-19T20:23:51.490Z,12.69
2023-05-19T20:28:59.053Z,12.68
2023-05-19T20:34:06.054Z,12.66
2023-05-19T20:39:13.025Z,12.64
2023-05-19T20:44:19.942Z,12.62
2023-05-19T20:49:27.070Z,12.61
2023-05-19T20:54:33.928Z,12.61
2023-05-19T20:59:40.971Z,12.59
2023-05-19T21:04:48.963Z,12.56
2023-05-19T21:09:56.702Z,12.55
2023-05-19T21:15:06.048Z,12.53
2023-05-19T21:20:15.586Z,12.53
2023-05-19T21:25:22.620Z,12.51
2023-05-19T21:30:29.446Z,12.49
2023-05-19T21:35:36.854Z,12.47
2023-05-19T21:40:43.736Z,12.44
2023-05-19T21:45:50.738Z,12.41
2023-05-19T21:50:58.006Z,12.39
2023-05-19T21:56:05.012Z,12.37
2023-05-19T22:01:11.893Z,12.37
2023-05-19T22:06:19.018Z,12.36
2023-05-19T22:11:26.075Z,12.36
2023-05-19T22:16:33.055Z,12.35
2023-05-19T22:21:40.154Z,12.33
2023-05-19T22:26:47.432Z,12.32
2023-05-19T22:31:54.372Z,12.31
2023-05-19T22:37:01.873Z,12.30
2023-05-19T22:42:09.086Z,12.29
2023-05-19T22:47:15.989Z,12.28
2023-05-19T22:52:23.100Z,12.28
2023-05-19T22:57:29.995Z,12.27
2023-05-19T23:02:37.105Z,12.26
2023-05-19T23:07:44.185Z,12.25
2023-05-19T23:12:51.619Z,12.25
2023-05-19T23:17:58.884Z,12.24
2023-05-19T23:23:05.871Z,12.23
2023-05-19T23:28:12.826Z,12.23
2023-05-19T23:33:19.677Z,12.22
2023-05-19T23:38:27.819Z,12.22
2023-05-19T23:43:34.744Z,12.19
2023-05-19T23:48:41.688Z,12.19
2023-05-19T23:53:49.008Z,12.19
2023-05-19T23:58:56.048Z,12.17
